Barnum, Texas
Current Conditions -  °F | °C
As of 5:53 PM on Friday 28 Nov 2014 (Local Time) from KLFK Reporting Station
Broken Clouds Broken Clouds  
Wind Chill: 62°   Ceiling: 5000
Heat Index: 62°   Visibility: 10mi
Dew Point: 52°   Wind: 7mph
Humidity: 70%   Direction: 160°SSE
Pressure: 30.15"   Gusts: NA
Location:  31.024°N, 94.7686°W
Report Text: KLFK 282353Z AUTO 16006KT 10SM BKN050 17/11 A3015 RMK AO2 SLP208 T01670111 10222 20167 58010 $
Loading
Personal Weather Stations






























Interactive Weather Map New forecast layout! Learn more

10-Day Weather Forecast

Advertisements
Track Severe Weather on mobile